Time;durP1;ratioP1;P1;durP2;ratioP2;P2;SDS_P1;SDS_P2;PMS_P1;PMS_P2;Temp;Humidity;BMP_temperature;BMP_pressure;BME280_temperature;BME280_humidity;BME280_pressure;Samples;Min_cycle;Max_cycle;Signal;HPM_P1;HPM_P2
2022/02/12 00:02:06;;;;;;;;;;;20.00;51.70;;;;;;5040514;28;19912;-66
2022/02/12 00:04:32;;;;;;;;;;;20.00;51.60;;;;;;5040528;28;20565;-68
2022/02/12 00:06:57;;;;;;;;;;;20.00;51.80;;;;;;5044875;28;20077;-68
2022/02/12 00:09:23;;;;;;;;;;;20.00;51.60;;;;;;5045677;28;19904;-68
2022/02/12 00:11:48;;;;;;;;;;;19.90;51.60;;;;;;5045186;28;19911;-68
2022/02/12 00:14:13;;;;;;;;;;;19.90;51.70;;;;;;5040247;28;20406;-68
2022/02/12 00:16:39;;;;;;;;;;;20.00;51.70;;;;;;5042833;28;19905;-68
2022/02/12 00:19:04;;;;;;;;;;;19.90;51.50;;;;;;5040763;28;19905;-66
2022/02/12 00:21:30;;;;;;;;;;;19.90;51.40;;;;;;5043059;28;20342;-66
2022/02/12 00:23:55;;;;;;;;;;;20.00;51.40;;;;;;5029197;28;19912;-66
2022/02/12 00:26:22;;;;;;;;;;;19.90;51.30;;;;;;5023381;28;19909;-65
2022/02/12 00:28:47;;;;;;;;;;;19.90;51.50;;;;;;5037685;28;19908;-67
2022/02/12 00:31:13;;;;;;;;;;;19.90;51.40;;;;;;5043460;28;19905;-65
2022/02/12 00:33:38;;;;;;;;;;;19.90;51.30;;;;;;5033084;28;19921;-68
2022/02/12 00:36:04;;;;;;;;;;;19.90;51.30;;;;;;5026839;28;19990;-68
2022/02/12 00:38:29;;;;;;;;;;;19.90;51.30;;;;;;5035505;28;20626;-68
2022/02/12 00:40:54;;;;;;;;;;;19.90;51.30;;;;;;5045146;28;19909;-73
2022/02/12 00:43:20;;;;;;;;;;;19.90;51.30;;;;;;5042625;28;19905;-68
2022/02/12 00:45:48;;;;;;;;;;;19.90;51.30;;;;;;5046982;28;19958;-68
2022/02/12 00:48:13;;;;;;;;;;;19.90;51.40;;;;;;5041041;28;19920;-67
2022/02/12 00:50:38;;;;;;;;;;;19.90;51.30;;;;;;5033330;28;19905;-68
2022/02/12 00:53:04;;;;;;;;;;;19.90;51.20;;;;;;5046254;28;19927;-68
2022/02/12 00:55:29;;;;;;;;;;;19.90;51.30;;;;;;5046560;28;19904;-68
2022/02/12 00:57:55;;;;;;;;;;;19.90;51.10;;;;;;5046113;28;19916;-68
2022/02/12 01:00:20;;;;;;;;;;;19.90;51.20;;;;;;5045977;28;19979;-68
2022/02/12 01:02:46;;;;;;;;;;;19.90;51.20;;;;;;5045050;28;19983;-67
2022/02/12 01:05:11;;;;;;;;;;;19.90;51.20;;;;;;5046694;28;19904;-67
2022/02/12 01:07:37;;;;;;;;;;;19.90;51.20;;;;;;5029103;28;19909;-68
2022/02/12 01:10:02;;;;;;;;;;;19.90;51.10;;;;;;5046310;28;20481;-66
2022/02/12 01:12:28;;;;;;;;;;;19.90;51.10;;;;;;5046171;28;19935;-68
2022/02/12 01:14:53;;;;;;;;;;;19.90;51.00;;;;;;5032623;28;20323;-63
2022/02/12 01:17:19;;;;;;;;;;;19.90;51.10;;;;;;5035386;28;19911;-69
2022/02/12 01:19:46;;;;;;;;;;;19.90;51.10;;;;;;5044816;28;19905;-64
2022/02/12 01:22:11;;;;;;;;;;;19.90;51.10;;;;;;5045991;28;20008;-68
2022/02/12 01:24:39;;;;;;;;;;;19.90;51.00;;;;;;5046248;28;20537;-63
2022/02/12 01:27:05;;;;;;;;;;;19.90;51.10;;;;;;5046079;28;20015;-68
2022/02/12 01:29:30;;;;;;;;;;;19.90;51.10;;;;;;5034953;28;19905;-67
2022/02/12 01:32:03;;;;;;;;;;;19.90;51.00;;;;;;5025895;28;20490;-63
2022/02/12 01:34:30;;;;;;;;;;;19.80;50.90;;;;;;5037303;28;19915;-67
2022/02/12 01:36:55;;;;;;;;;;;19.90;51.10;;;;;;5046115;28;19905;-63
2022/02/12 01:39:21;;;;;;;;;;;19.90;51.00;;;;;;5045525;28;19915;-68
2022/02/12 01:41:46;;;;;;;;;;;19.90;50.90;;;;;;5046253;28;19905;-69
2022/02/12 01:44:12;;;;;;;;;;;19.80;50.80;;;;;;5044212;28;19936;-68
2022/02/12 01:46:37;;;;;;;;;;;19.80;50.90;;;;;;5044384;28;20382;-64
2022/02/12 01:49:03;;;;;;;;;;;19.80;50.80;;;;;;5045368;28;20023;-68
2022/02/12 01:51:28;;;;;;;;;;;19.80;50.90;;;;;;5045972;28;20019;-64
2022/02/12 01:53:54;;;;;;;;;;;19.80;50.90;;;;;;5028144;28;19917;-66
2022/02/12 01:56:19;;;;;;;;;;;19.80;50.70;;;;;;5046257;28;19904;-66
2022/02/12 01:58:45;;;;;;;;;;;19.80;50.70;;;;;;5045695;28;20325;-67
2022/02/12 02:01:10;;;;;;;;;;;19.80;50.80;;;;;;5026170;28;19919;-68
2022/02/12 02:03:36;;;;;;;;;;;19.80;50.90;;;;;;5045085;28;19905;-65
2022/02/12 02:06:01;;;;;;;;;;;19.80;50.80;;;;;;5026772;28;20538;-67
2022/02/12 02:08:27;;;;;;;;;;;19.80;50.70;;;;;;5029540;28;19962;-63
2022/02/12 02:10:53;;;;;;;;;;;19.80;50.70;;;;;;5045718;28;20267;-66
2022/02/12 02:13:22;;;;;;;;;;;19.80;50.70;;;;;;5045393;28;19916;-66
2022/02/12 02:15:47;;;;;;;;;;;19.80;50.70;;;;;;5045067;28;19905;-66
2022/02/12 02:18:13;;;;;;;;;;;19.80;50.70;;;;;;5044600;28;19908;-67
2022/02/12 02:20:38;;;;;;;;;;;19.80;50.50;;;;;;5045350;28;19944;-66
2022/02/12 02:23:04;;;;;;;;;;;19.80;50.50;;;;;;5046087;28;19916;-66
2022/02/12 02:25:29;;;;;;;;;;;19.80;50.30;;;;;;5045254;28;20487;-64
2022/02/12 02:27:55;;;;;;;;;;;19.90;50.30;;;;;;5045764;28;19951;-65
2022/02/12 02:30:20;;;;;;;;;;;19.80;50.20;;;;;;5046206;28;19904;-65
2022/02/12 02:32:46;;;;;;;;;;;19.80;50.90;;;;;;5046414;28;19913;-64
2022/02/12 02:35:12;;;;;;;;;;;19.80;50.30;;;;;;5045422;28;19904;-68
2022/02/12 02:37:37;;;;;;;;;;;19.80;50.30;;;;;;5045041;28;19966;-65
2022/02/12 02:40:08;;;;;;;;;;;19.80;50.30;;;;;;5044384;28;19912;-68
2022/02/12 02:42:34;;;;;;;;;;;19.80;50.40;;;;;;5045352;28;19905;-68
2022/02/12 02:44:59;;;;;;;;;;;19.80;50.50;;;;;;5042308;28;19904;-68
2022/02/12 02:47:40;;;;;;;;;;;19.80;50.50;;;;;;5042601;28;20319;-68
2022/02/12 02:55:59;;;;;;;;;;;19.70;50.50;;;;;;5044096;28;19917;-66
2022/02/12 02:58:19;;;;;;;;;;;19.70;50.40;;;;;;5043654;28;19966;-66
2022/02/12 03:00:44;;;;;;;;;;;19.70;50.40;;;;;;5030333;28;19917;-66
2022/02/12 03:03:09;;;;;;;;;;;19.70;50.50;;;;;;5027363;28;19909;-68
2022/02/12 03:05:35;;;;;;;;;;;19.70;50.40;;;;;;5033917;28;19943;-68
2022/02/12 03:08:00;;;;;;;;;;;19.70;50.50;;;;;;5044167;28;19919;-67
2022/02/12 03:10:26;;;;;;;;;;;19.70;50.50;;;;;;5030173;28;20364;-64
2022/02/12 03:12:51;;;;;;;;;;;19.70;50.50;;;;;;5043843;28;19916;-65
2022/02/12 03:15:17;;;;;;;;;;;19.70;50.60;;;;;;5044131;28;19911;-68
2022/02/12 03:17:42;;;;;;;;;;;19.70;50.50;;;;;;5043966;28;20363;-68
2022/02/12 03:20:08;;;;;;;;;;;19.70;50.50;;;;;;5043270;28;19905;-63
2022/02/12 03:22:33;;;;;;;;;;;19.70;50.60;;;;;;5043553;28;20046;-67
2022/02/12 03:24:59;;;;;;;;;;;19.70;50.60;;;;;;5043681;28;19977;-66
2022/02/12 03:27:24;;;;;;;;;;;19.70;50.50;;;;;;5044244;28;19916;-66
2022/02/12 03:29:50;;;;;;;;;;;19.70;50.60;;;;;;5043075;28;20427;-67
2022/02/12 03:32:15;;;;;;;;;;;19.70;50.50;;;;;;5039407;28;19929;-68
2022/02/12 03:34:40;;;;;;;;;;;19.70;50.60;;;;;;5031751;28;20292;-68
2022/02/12 03:37:06;;;;;;;;;;;19.70;50.60;;;;;;5013536;28;19920;-67
2022/02/12 03:39:31;;;;;;;;;;;19.70;50.40;;;;;;5042717;28;19914;-68
2022/02/12 03:41:57;;;;;;;;;;;19.70;50.60;;;;;;5043402;28;20326;-68
2022/02/12 03:44:22;;;;;;;;;;;19.70;50.60;;;;;;5023658;28;19909;-69
2022/02/12 03:46:48;;;;;;;;;;;19.70;50.60;;;;;;5040634;28;20410;-68
2022/02/12 03:49:13;;;;;;;;;;;19.60;50.40;;;;;;5043298;28;19909;-68
2022/02/12 03:51:39;;;;;;;;;;;19.70;50.40;;;;;;5035886;28;19916;-63
2022/02/12 03:54:04;;;;;;;;;;;19.70;50.50;;;;;;5033936;28;19913;-63
2022/02/12 03:56:29;;;;;;;;;;;19.60;50.50;;;;;;5043477;28;20509;-67
2022/02/12 03:58:55;;;;;;;;;;;19.70;50.50;;;;;;5043396;28;19924;-66
2022/02/12 04:01:20;;;;;;;;;;;19.70;50.50;;;;;;5043534;28;19920;-68
2022/02/12 04:03:47;;;;;;;;;;;19.60;50.30;;;;;;5043316;28;19908;-69
2022/02/12 04:06:12;;;;;;;;;;;19.70;50.50;;;;;;5043837;28;19909;-72
2022/02/12 04:08:38;;;;;;;;;;;19.70;50.50;;;;;;5043000;28;19955;-68
2022/02/12 04:11:04;;;;;;;;;;;19.60;50.40;;;;;;5027616;28;19921;-68
2022/02/12 04:13:32;;;;;;;;;;;19.60;50.40;;;;;;5039874;28;19955;-68
2022/02/12 04:15:57;;;;;;;;;;;19.60;50.40;;;;;;5043089;28;20016;-65
2022/02/12 04:18:23;;;;;;;;;;;19.60;50.40;;;;;;5042871;28;19913;-67
2022/02/12 04:20:48;;;;;;;;;;;19.60;50.40;;;;;;5042741;28;19909;-68
2022/02/12 04:23:14;;;;;;;;;;;19.60;50.40;;;;;;5043478;28;19962;-64
2022/02/12 04:25:39;;;;;;;;;;;19.60;50.30;;;;;;5043213;28;19916;-68
2022/02/12 04:28:05;;;;;;;;;;;19.60;50.40;;;;;;5038580;28;19912;-68
2022/02/12 04:30:31;;;;;;;;;;;19.60;50.50;;;;;;5042700;28;20267;-63
2022/02/12 04:32:56;;;;;;;;;;;19.60;50.40;;;;;;5029367;28;20396;-68
2022/02/12 04:35:22;;;;;;;;;;;19.60;50.40;;;;;;5023675;28;20384;-67
2022/02/12 04:37:47;;;;;;;;;;;19.60;50.20;;;;;;5034390;28;19934;-69
2022/02/12 04:40:13;;;;;;;;;;;19.60;50.30;;;;;;5043338;28;19915;-68
2022/02/12 04:42:38;;;;;;;;;;;19.60;50.30;;;;;;5043456;28;19919;-68
2022/02/12 04:45:04;;;;;;;;;;;19.60;50.30;;;;;;5043100;28;19978;-67
2022/02/12 04:47:30;;;;;;;;;;;19.60;50.20;;;;;;5042721;28;20114;-64
2022/02/12 04:49:55;;;;;;;;;;;19.60;50.20;;;;;;5042186;28;20610;-66
2022/02/12 04:52:20;;;;;;;;;;;19.60;50.30;;;;;;5042582;28;19921;-68
2022/02/12 04:54:46;;;;;;;;;;;19.60;50.20;;;;;;5043497;28;19916;-68
2022/02/12 04:57:12;;;;;;;;;;;19.60;50.20;;;;;;5042700;28;21536;-64
2022/02/12 04:59:37;;;;;;;;;;;19.60;50.20;;;;;;5042726;28;19927;-68
2022/02/12 05:02:03;;;;;;;;;;;19.60;50.10;;;;;;5042866;28;19958;-66
2022/02/12 05:04:28;;;;;;;;;;;19.60;50.20;;;;;;5044629;28;19916;-62
2022/02/12 05:06:54;;;;;;;;;;;19.60;50.10;;;;;;5040797;28;19931;-64
2022/02/12 05:09:19;;;;;;;;;;;19.60;50.10;;;;;;5023054;28;20339;-63
2022/02/12 05:11:48;;;;;;;;;;;19.60;49.80;;;;;;5042988;28;19966;-64
2022/02/12 05:14:13;;;;;;;;;;;19.60;50.00;;;;;;5040538;28;19913;-67
2022/02/12 05:16:39;;;;;;;;;;;19.60;49.90;;;;;;5022894;28;19909;-67
2022/02/12 05:19:04;;;;;;;;;;;19.60;50.20;;;;;;5041950;28;19909;-66
2022/02/12 05:21:30;;;;;;;;;;;19.50;50.00;;;;;;5046052;28;19913;-68
2022/02/12 05:23:55;;;;;;;;;;;19.50;49.90;;;;;;5046187;28;19909;-68
2022/02/12 05:26:21;;;;;;;;;;;19.50;50.00;;;;;;5045957;28;19970;-68
2022/02/12 05:28:46;;;;;;;;;;;19.50;50.00;;;;;;5033764;28;19917;-68
2022/02/12 05:31:12;;;;;;;;;;;19.50;50.20;;;;;;5037474;28;19920;-67
2022/02/12 05:33:37;;;;;;;;;;;19.60;50.00;;;;;;5034884;28;19972;-67
2022/02/12 05:36:04;;;;;;;;;;;19.50;50.00;;;;;;5025576;28;20025;-67
2022/02/12 05:38:29;;;;;;;;;;;19.50;49.80;;;;;;5044059;28;19916;-67
2022/02/12 05:40:55;;;;;;;;;;;19.50;49.90;;;;;;5046248;28;19909;-67
2022/02/12 05:43:20;;;;;;;;;;;19.50;49.80;;;;;;5046228;28;19908;-67
2022/02/12 05:45:45;;;;;;;;;;;19.50;49.50;;;;;;5047121;28;19909;-67
2022/02/12 05:48:11;;;;;;;;;;;19.50;50.00;;;;;;5048213;28;19912;-66
2022/02/12 05:50:36;;;;;;;;;;;19.50;49.90;;;;;;5046748;28;19923;-67
2022/02/12 05:53:02;;;;;;;;;;;19.50;49.60;;;;;;5000512;22;19986;-72
2022/02/12 05:55:27;;;;;;;;;;;19.50;49.70;;;;;;4969857;28;20546;-74
2022/02/12 05:57:57;;;;;;;;;;;19.50;49.90;;;;;;4967970;28;19910;-73
2022/02/12 06:00:22;;;;;;;;;;;19.50;49.40;;;;;;4966879;28;19914;-73
2022/02/12 06:02:48;;;;;;;;;;;19.50;49.70;;;;;;4966880;28;19973;-73
2022/02/12 06:05:13;;;;;;;;;;;19.50;49.60;;;;;;4967765;28;19910;-74
2022/02/12 06:07:38;;;;;;;;;;;19.50;50.40;;;;;;4949509;28;20368;-73
2022/02/12 06:10:04;;;;;;;;;;;19.50;49.70;;;;;;4961396;28;19973;-74
2022/02/12 06:12:29;;;;;;;;;;;19.50;49.70;;;;;;4966193;28;19925;-73
2022/02/12 06:14:55;;;;;;;;;;;19.50;49.70;;;;;;4966102;28;19916;-74
2022/02/12 06:17:20;;;;;;;;;;;19.50;49.50;;;;;;4964857;28;19953;-73
2022/02/12 06:19:46;;;;;;;;;;;19.50;49.90;;;;;;4966817;28;19910;-73
2022/02/12 06:22:11;;;;;;;;;;;19.50;49.80;;;;;;4966221;28;19910;-73
2022/02/12 06:24:37;;;;;;;;;;;19.50;49.80;;;;;;4967123;28;20635;-73
2022/02/12 06:27:04;;;;;;;;;;;19.50;49.60;;;;;;4965916;28;19958;-73
2022/02/12 06:29:29;;;;;;;;;;;19.50;49.70;;;;;;4966705;28;19973;-73
2022/02/12 06:31:55;;;;;;;;;;;19.50;49.60;;;;;;4964297;28;20410;-73
2022/02/12 06:34:20;;;;;;;;;;;19.50;49.60;;;;;;4965040;28;19910;-73
2022/02/12 06:39:15;;;;;;;;;;;19.50;49.60;;;;;;5022281;28;19947;-51
2022/02/12 06:41:40;;;;;;;;;;;19.50;49.80;;;;;;5024215;28;20413;-51
2022/02/12 06:44:06;;;;;;;;;;;19.50;49.50;;;;;;5021995;28;19998;-51
2022/02/12 06:46:31;;;;;;;;;;;19.50;49.80;;;;;;5038232;28;19924;-53
2022/02/12 06:48:57;;;;;;;;;;;19.50;49.50;;;;;;5036793;28;19909;-57
2022/02/12 06:51:22;;;;;;;;;;;19.50;49.10;;;;;;5020799;28;19921;-54
2022/02/12 06:53:48;;;;;;;;;;;19.50;49.70;;;;;;5022035;28;19920;-59
2022/02/12 06:56:14;;;;;;;;;;;19.50;49.40;;;;;;5021647;28;19921;-53
2022/02/12 06:58:40;;;;;;;;;;;19.40;49.60;;;;;;5033613;28;19915;-57
2022/02/12 07:01:05;;;;;;;;;;;19.40;49.60;;;;;;5029909;28;19909;-61
2022/02/12 07:03:30;;;;;;;;;;;19.50;49.40;;;;;;5030430;28;19915;-57
2022/02/12 07:05:56;;;;;;;;;;;19.50;49.40;;;;;;5021147;28;19955;-59
2022/02/12 07:08:21;;;;;;;;;;;19.40;49.30;;;;;;5019987;28;19919;-57
2022/02/12 07:10:47;;;;;;;;;;;19.40;49.50;;;;;;5020162;28;20386;-52
2022/02/12 07:13:13;;;;;;;;;;;19.40;49.50;;;;;;5021148;28;19917;-58
2022/02/12 07:15:41;;;;;;;;;;;19.40;49.60;;;;;;5021618;28;19920;-58
2022/02/12 07:18:07;;;;;;;;;;;19.40;49.60;;;;;;5013441;28;19909;-55
2022/02/12 07:20:32;;;;;;;;;;;19.40;49.70;;;;;;5024412;28;19909;-54
2022/02/12 07:22:58;;;;;;;;;;;19.40;49.40;;;;;;5038572;28;20039;-51
2022/02/12 07:25:23;;;;;;;;;;;19.40;49.70;;;;;;5032377;28;19909;-52
2022/02/12 07:27:53;;;;;;;;;;;19.40;49.70;;;;;;5030394;28;19913;-52
2022/02/12 07:30:18;;;;;;;;;;;19.40;49.80;;;;;;5027904;28;19909;-61
2022/02/12 07:32:44;;;;;;;;;;;19.40;49.90;;;;;;5040818;28;19920;-52
2022/02/12 07:35:10;;;;;;;;;;;19.40;49.90;;;;;;5026927;28;20390;-57
2022/02/12 07:37:37;;;;;;;;;;;19.40;49.90;;;;;;4999898;28;1000525;-60
2022/02/12 07:40:03;;;;;;;;;;;19.40;50.10;;;;;;5035249;28;20027;-53
2022/02/12 07:42:28;;;;;;;;;;;19.40;50.10;;;;;;5041582;28;20405;-52
2022/02/12 07:44:53;;;;;;;;;;;19.40;50.20;;;;;;5037277;28;19916;-55
2022/02/12 07:47:19;;;;;;;;;;;19.40;50.20;;;;;;5021596;28;20346;-59
2022/02/12 07:49:44;;;;;;;;;;;19.40;50.30;;;;;;5024081;28;20722;-57
2022/02/12 07:52:10;;;;;;;;;;;19.40;50.30;;;;;;5040615;28;20582;-57
2022/02/12 07:54:35;;;;;;;;;;;19.40;50.10;;;;;;5030412;28;19917;-61
2022/02/12 07:57:01;;;;;;;;;;;19.40;50.30;;;;;;5018766;28;20011;-56
2022/02/12 07:59:26;;;;;;;;;;;19.40;50.30;;;;;;5024794;28;19998;-51
2022/02/12 08:01:52;;;;;;;;;;;19.40;50.30;;;;;;5022314;28;20481;-57
2022/02/12 08:04:17;;;;;;;;;;;19.40;50.40;;;;;;5022303;28;20386;-54
2022/02/12 08:09:27;;;;;;;;;;;19.30;50.50;;;;;;5021837;28;19931;-58
2022/02/12 08:12:01;;;;;;;;;;;19.30;50.60;;;;;;5054242;28;19908;-59
2022/02/12 08:14:27;;;;;;;;;;;19.30;50.70;;;;;;5031734;28;20281;-52
2022/02/12 08:16:52;;;;;;;;;;;19.30;50.70;;;;;;5050949;28;19908;-53
2022/02/12 08:19:18;;;;;;;;;;;19.30;50.80;;;;;;5038429;28;19916;-58
2022/02/12 08:21:43;;;;;;;;;;;19.20;50.80;;;;;;5053929;28;19912;-53
2022/02/12 08:24:09;;;;;;;;;;;19.20;50.90;;;;;;5033471;28;19912;-55
2022/02/12 08:26:34;;;;;;;;;;;19.20;51.00;;;;;;5042076;28;20277;-61
2022/02/12 08:29:00;;;;;;;;;;;19.20;51.10;;;;;;5060436;28;20259;-51
2022/02/12 08:31:26;;;;;;;;;;;19.20;51.10;;;;;;5040838;28;19916;-52
2022/02/12 08:33:51;;;;;;;;;;;19.20;51.00;;;;;;5032370;28;20321;-56
2022/02/12 08:36:16;;;;;;;;;;;19.20;50.80;;;;;;5040132;28;21443;-50
2022/02/12 08:38:42;;;;;;;;;;;19.20;50.80;;;;;;5043605;28;20045;-51
2022/02/12 08:41:07;;;;;;;;;;;19.20;50.80;;;;;;5048287;28;19908;-55
2022/02/12 08:43:33;;;;;;;;;;;19.20;50.70;;;;;;5044420;28;19965;-59
2022/02/12 08:45:58;;;;;;;;;;;19.20;50.80;;;;;;5054258;28;19915;-52
2022/02/12 08:48:24;;;;;;;;;;;19.20;50.70;;;;;;5057332;28;19920;-59
2022/02/12 08:50:49;;;;;;;;;;;19.20;50.60;;;;;;5047693;28;20385;-63
2022/02/12 08:53:16;;;;;;;;;;;19.20;50.60;;;;;;5035771;28;19965;-59
2022/02/12 08:55:42;;;;;;;;;;;19.20;50.50;;;;;;5053266;28;19923;-61
2022/02/12 08:58:07;;;;;;;;;;;19.20;50.40;;;;;;5044238;28;19913;-54
2022/02/12 09:00:33;;;;;;;;;;;19.20;50.40;;;;;;5048090;28;19909;-55
2022/02/12 09:02:58;;;;;;;;;;;19.20;50.40;;;;;;5060606;28;19934;-58
2022/02/12 09:05:24;;;;;;;;;;;19.20;50.30;;;;;;5055536;28;19915;-61
2022/02/12 09:07:49;;;;;;;;;;;19.20;50.30;;;;;;5050957;28;19931;-52
2022/02/12 09:10:14;;;;;;;;;;;19.20;50.30;;;;;;5055251;28;20389;-56
2022/02/12 09:12:40;;;;;;;;;;;19.20;50.30;;;;;;5050563;28;19912;-58
2022/02/12 09:15:07;;;;;;;;;;;19.20;50.30;;;;;;5045481;28;19909;-53
2022/02/12 09:17:32;;;;;;;;;;;19.20;50.40;;;;;;5048401;28;19954;-57
2022/02/12 09:19:58;;;;;;;;;;;19.20;50.30;;;;;;5032687;28;19908;-61
2022/02/12 09:22:24;;;;;;;;;;;19.20;50.60;;;;;;5029680;28;19916;-53
2022/02/12 09:24:50;;;;;;;;;;;19.20;50.40;;;;;;5050374;28;19999;-55
2022/02/12 09:27:16;;;;;;;;;;;19.20;50.50;;;;;;5052768;28;19909;-58
2022/02/12 09:29:42;;;;;;;;;;;19.20;50.50;;;;;;5054071;28;19908;-58
2022/02/12 09:32:08;;;;;;;;;;;19.20;50.60;;;;;;5059640;28;19921;-60
2022/02/12 09:34:33;;;;;;;;;;;19.20;50.60;;;;;;5048557;28;19908;-60
2022/02/12 09:36:58;;;;;;;;;;;19.20;50.60;;;;;;5049430;28;20369;-63
2022/02/12 09:39:24;;;;;;;;;;;19.20;50.60;;;;;;5063343;28;19914;-51
2022/02/12 09:41:49;;;;;;;;;;;19.20;50.60;;;;;;5059379;28;19916;-57
2022/02/12 09:44:15;;;;;;;;;;;19.20;50.60;;;;;;5043704;28;19915;-59
2022/02/12 09:46:43;;;;;;;;;;;19.20;50.60;;;;;;5052120;28;19920;-55
2022/02/12 09:49:09;;;;;;;;;;;19.20;50.60;;;;;;5043009;28;19925;-57
2022/02/12 09:51:35;;;;;;;;;;;19.20;50.70;;;;;;5025776;28;19912;-56
2022/02/12 09:54:01;;;;;;;;;;;19.30;50.70;;;;;;5046208;28;20374;-60
2022/02/12 09:56:26;;;;;;;;;;;19.20;50.60;;;;;;5023902;28;19919;-54
2022/02/12 09:58:52;;;;;;;;;;;19.20;50.60;;;;;;5037643;28;20251;-60
2022/02/12 10:01:19;;;;;;;;;;;19.20;50.60;;;;;;5052094;28;19912;-59
2022/02/12 10:03:45;;;;;;;;;;;19.30;50.70;;;;;;5025159;28;19930;-61
2022/02/12 10:06:11;;;;;;;;;;;19.20;50.60;;;;;;5025656;28;20350;-61
2022/02/12 10:08:37;;;;;;;;;;;19.30;50.80;;;;;;5042609;28;20373;-58
2022/02/12 10:11:16;;;;;;;;;;;19.20;50.60;;;;;;5028846;28;20413;-60
2022/02/12 10:13:41;;;;;;;;;;;19.30;50.70;;;;;;5053944;28;19912;-52
2022/02/12 10:16:07;;;;;;;;;;;19.30;50.70;;;;;;5057275;28;19912;-58
2022/02/12 10:18:35;;;;;;;;;;;19.30;50.70;;;;;;5024734;28;19916;-57
2022/02/12 10:21:01;;;;;;;;;;;19.30;50.60;;;;;;5063088;28;19912;-51
2022/02/12 10:23:30;;;;;;;;;;;19.30;50.60;;;;;;5032179;28;19992;-56
2022/02/12 10:26:01;;;;;;;;;;;19.30;50.60;;;;;;5026289;28;19959;-54
2022/02/12 10:28:27;;;;;;;;;;;19.30;50.70;;;;;;5041875;28;19963;-52
2022/02/12 10:30:52;;;;;;;;;;;19.30;50.70;;;;;;5029407;28;19916;-56
2022/02/12 10:33:17;;;;;;;;;;;19.20;50.60;;;;;;5039714;28;19912;-60
2022/02/12 10:35:52;;;;;;;;;;;19.30;50.60;;;;;;5068614;28;19920;-58
2022/02/12 10:38:18;;;;;;;;;;;19.30;51.20;;;;;;5048074;28;19916;-57
2022/02/12 10:40:43;;;;;;;;;;;19.30;51.60;;;;;;5044281;28;20100;-51
2022/02/12 10:43:09;;;;;;;;;;;19.30;51.80;;;;;;5039692;28;19908;-56
2022/02/12 10:45:34;;;;;;;;;;;19.30;51.90;;;;;;5040581;28;20290;-55
2022/02/12 10:48:00;;;;;;;;;;;19.30;51.90;;;;;;5043501;28;20003;-51
2022/02/12 10:50:27;;;;;;;;;;;19.30;52.10;;;;;;5052887;28;19954;-56
2022/02/12 10:53:00;;;;;;;;;;;19.30;52.10;;;;;;5026661;28;19920;-58
2022/02/12 10:55:30;;;;;;;;;;;19.30;52.00;;;;;;5030435;28;20386;-54
2022/02/12 10:57:59;;;;;;;;;;;19.30;51.90;;;;;;5028371;28;19954;-54
2022/02/12 11:00:25;;;;;;;;;;;19.30;52.00;;;;;;5020125;28;19909;-54
2022/02/12 11:02:51;;;;;;;;;;;19.30;52.00;;;;;;5029182;28;19913;-53
2022/02/12 11:05:17;;;;;;;;;;;19.30;51.90;;;;;;5037460;28;20571;-50
2022/02/12 11:07:42;;;;;;;;;;;19.30;51.70;;;;;;5021909;28;19908;-51
2022/02/12 11:10:08;;;;;;;;;;;19.30;51.60;;;;;;5036651;28;19908;-56
2022/02/12 11:12:33;;;;;;;;;;;19.30;51.30;;;;;;5036318;28;19939;-55
2022/02/12 11:14:59;;;;;;;;;;;19.30;50.90;;;;;;5022986;28;19916;-56
2022/02/12 11:17:26;;;;;;;;;;;19.30;50.50;;;;;;5050094;28;19912;-53
2022/02/12 11:19:52;;;;;;;;;;;19.30;50.40;;;;;;5026543;28;19916;-53
2022/02/12 11:22:18;;;;;;;;;;;19.30;50.20;;;;;;5034471;28;19916;-60
2022/02/12 11:24:44;;;;;;;;;;;19.30;50.10;;;;;;5057267;28;20261;-53
2022/02/12 11:27:24;;;;;;;;;;;19.30;50.20;;;;;;5034708;28;19988;-50
2022/02/12 11:29:50;;;;;;;;;;;19.30;50.30;;;;;;5028673;28;19912;-56
2022/02/12 11:32:16;;;;;;;;;;;19.30;50.20;;;;;;5036088;28;19909;-60
2022/02/12 11:34:43;;;;;;;;;;;19.30;50.30;;;;;;5056947;28;19908;-61
2022/02/12 11:37:15;;;;;;;;;;;19.30;50.30;;;;;;5049935;28;19915;-58
2022/02/12 11:39:41;;;;;;;;;;;19.30;50.00;;;;;;5030607;28;20396;-57
2022/02/12 11:42:06;;;;;;;;;;;19.30;50.20;;;;;;5058939;28;19912;-61
2022/02/12 11:44:38;;;;;;;;;;;19.30;49.90;;;;;;5034434;28;20003;-58
2022/02/12 11:47:05;;;;;;;;;;;19.30;49.30;;;;;;5045945;28;19940;-58
2022/02/12 11:49:37;;;;;;;;;;;19.30;48.80;;;;;;5029768;28;19937;-60
2022/02/12 11:52:07;;;;;;;;;;;19.30;48.60;;;;;;5037059;28;19947;-55
2022/02/12 11:54:56;;;;;;;;;;;19.30;49.40;;;;;;5032820;28;19966;-55
2022/02/12 11:57:24;;;;;;;;;;;19.30;49.60;;;;;;5036450;28;19912;-62
2022/02/12 11:59:50;;;;;;;;;;;19.30;49.60;;;;;;5027193;28;20450;-57
2022/02/12 12:02:34;;;;;;;;;;;19.30;49.50;;;;;;5009712;28;19914;-59
2022/02/12 12:05:18;;;;;;;;;;;19.30;49.70;;;;;;5048673;28;19909;-54
2022/02/12 12:07:58;;;;;;;;;;;19.40;49.50;;;;;;5053861;28;19915;-59
2022/02/12 12:10:24;;;;;;;;;;;19.30;49.60;;;;;;5050510;28;19916;-58
2022/02/12 12:12:49;;;;;;;;;;;19.40;49.60;;;;;;5027986;28;20370;-54
2022/02/12 12:15:16;;;;;;;;;;;19.40;49.30;;;;;;5054236;28;19909;-52
2022/02/12 12:17:41;;;;;;;;;;;19.40;49.10;;;;;;5061534;28;19913;-59
2022/02/12 12:20:07;;;;;;;;;;;19.40;49.10;;;;;;5044932;28;20071;-51
2022/02/12 12:22:32;;;;;;;;;;;19.40;48.70;;;;;;5031132;28;19915;-59
2022/02/12 12:24:58;;;;;;;;;;;19.30;48.60;;;;;;5050606;28;19928;-55
2022/02/12 12:27:23;;;;;;;;;;;19.30;48.60;;;;;;5052810;28;19916;-58
2022/02/12 12:32:34;;;;;;;;;;;19.30;48.70;;;;;;5043527;28;19974;-58
2022/02/12 12:35:00;;;;;;;;;;;19.30;48.60;;;;;;5042746;28;19951;-55
2022/02/12 12:37:27;;;;;;;;;;;19.30;48.70;;;;;;5045891;28;20011;-58
2022/02/12 12:39:54;;;;;;;;;;;19.30;49.10;;;;;;5021684;28;19966;-58
2022/02/12 12:42:21;;;;;;;;;;;19.30;48.70;;;;;;5034666;28;19936;-54
2022/02/12 12:45:00;;;;;;;;;;;19.30;48.90;;;;;;5025230;28;20030;-53
2022/02/12 12:47:26;;;;;;;;;;;19.30;49.10;;;;;;5042834;28;19914;-51
2022/02/12 12:49:55;;;;;;;;;;;19.40;48.90;;;;;;5037656;28;19955;-50
2022/02/12 12:52:23;;;;;;;;;;;19.30;48.90;;;;;;5034544;28;19920;-59
2022/02/12 12:54:49;;;;;;;;;;;19.30;49.30;;;;;;5049392;28;19908;-56
2022/02/12 12:57:15;;;;;;;;;;;19.40;49.60;;;;;;5044962;28;19915;-58
2022/02/12 12:59:50;;;;;;;;;;;19.40;49.70;;;;;;5013802;28;20487;-59
2022/02/12 13:02:15;;;;;;;;;;;19.40;49.70;;;;;;5056988;28;19971;-62
2022/02/12 13:04:56;;;;;;;;;;;19.40;49.60;;;;;;5022554;28;19947;-58
2022/02/12 13:07:23;;;;;;;;;;;19.40;49.80;;;;;;5039624;28;19938;-53
2022/02/12 13:09:48;;;;;;;;;;;19.50;49.70;;;;;;5016186;28;19913;-52
2022/02/12 13:12:26;;;;;;;;;;;19.50;49.70;;;;;;5023119;28;19959;-53
2022/02/12 13:14:52;;;;;;;;;;;19.50;50.40;;;;;;5044302;28;20593;-57
2022/02/12 13:17:17;;;;;;;;;;;19.50;49.80;;;;;;5057038;28;19917;-61
2022/02/12 13:19:43;;;;;;;;;;;19.50;49.80;;;;;;5041245;28;19943;-53
2022/02/12 13:22:11;;;;;;;;;;;19.50;49.80;;;;;;5050077;28;19915;-52
2022/02/12 13:24:38;;;;;;;;;;;19.50;49.70;;;;;;5042248;28;19908;-50
2022/02/12 13:27:04;;;;;;;;;;;19.50;49.70;;;;;;5045090;28;20003;-53
2022/02/12 13:29:29;;;;;;;;;;;19.50;49.80;;;;;;5048898;28;19909;-56
2022/02/12 13:31:56;;;;;;;;;;;19.50;49.80;;;;;;5047533;28;19908;-52
2022/02/12 13:34:25;;;;;;;;;;;19.60;49.90;;;;;;5028172;28;19927;-59
2022/02/12 13:36:51;;;;;;;;;;;19.60;49.80;;;;;;5058444;28;19909;-53
2022/02/12 13:39:17;;;;;;;;;;;19.60;49.80;;;;;;5025419;28;19919;-53
2022/02/12 13:41:43;;;;;;;;;;;19.60;49.80;;;;;;5035212;28;19968;-55
2022/02/12 13:44:08;;;;;;;;;;;19.60;49.80;;;;;;5036931;28;19912;-58
2022/02/12 13:46:38;;;;;;;;;;;19.60;49.70;;;;;;5047092;28;19928;-62
2022/02/12 13:49:13;;;;;;;;;;;19.60;49.70;;;;;;5013767;28;19912;-54
2022/02/12 13:51:59;;;;;;;;;;;19.70;49.80;;;;;;5038874;28;19908;-58
2022/02/12 13:54:25;;;;;;;;;;;19.60;49.70;;;;;;5050715;28;19912;-62
2022/02/12 13:56:51;;;;;;;;;;;19.70;49.70;;;;;;5027169;28;20000;-56
2022/02/12 13:59:18;;;;;;;;;;;19.70;49.60;;;;;;5013117;28;19908;-60
2022/02/12 14:01:43;;;;;;;;;;;19.70;49.60;;;;;;5053014;28;19908;-56
2022/02/12 14:04:11;;;;;;;;;;;19.70;49.60;;;;;;5038428;28;19912;-50
2022/02/12 14:06:36;;;;;;;;;;;19.60;49.50;;;;;;5029313;28;19909;-49
2022/02/12 14:09:01;;;;;;;;;;;19.70;49.60;;;;;;5032513;28;19970;-57
2022/02/12 14:11:27;;;;;;;;;;;19.70;49.90;;;;;;5027106;28;19915;-54
2022/02/12 14:13:56;;;;;;;;;;;19.70;49.80;;;;;;5046789;28;19916;-55
2022/02/12 14:16:21;;;;;;;;;;;19.70;50.00;;;;;;5031796;28;19944;-52
2022/02/12 14:18:46;;;;;;;;;;;19.70;50.10;;;;;;5032662;28;19947;-49
2022/02/12 14:21:12;;;;;;;;;;;19.70;50.30;;;;;;5027435;28;19908;-58
2022/02/12 14:23:38;;;;;;;;;;;19.80;50.40;;;;;;5039111;28;19912;-53
2022/02/12 14:26:03;;;;;;;;;;;19.80;50.50;;;;;;5051451;28;19969;-54